sensor_id;sensor_type;location;lat;lon;timestamp;P1;durP1;ratioP1;P2;durP2;ratioP2
59038;SDS011;44824;43.376;19.630;2022-11-11T00:00:16;77.55;;;50.75;;
59038;SDS011;44824;43.376;19.630;2022-11-11T00:02:43;80.78;;;51.63;;
59038;SDS011;44824;43.376;19.630;2022-11-11T00:05:09;69.55;;;47.10;;
59038;SDS011;44824;43.376;19.630;2022-11-11T00:07:35;66.53;;;42.85;;
59038;SDS011;44824;43.376;19.630;2022-11-11T00:25:45;58.67;;;39.63;;
59038;SDS011;44824;43.376;19.630;2022-11-11T00:28:11;59.15;;;39.28;;
59038;SDS011;44824;43.376;19.630;2022-11-11T00:30:37;58.28;;;38.05;;
59038;SDS011;44824;43.376;19.630;2022-11-11T00:33:03;60.72;;;39.13;;
59038;SDS011;44824;43.376;19.630;2022-11-11T00:35:30;61.72;;;39.45;;
59038;SDS011;44824;43.376;19.630;2022-11-11T00:38:14;72.10;;;44.63;;
59038;SDS011;44824;43.376;19.630;2022-11-11T00:41:00;68.47;;;44.00;;
59038;SDS011;44824;43.376;19.630;2022-11-11T00:43:26;65.05;;;43.67;;
59038;SDS011;44824;43.376;19.630;2022-11-11T00:56:11;62.60;;;42.92;;
59038;SDS011;44824;43.376;19.630;2022-11-11T00:58:37;65.15;;;42.28;;
59038;SDS011;44824;43.376;19.630;2022-11-11T01:01:03;65.75;;;44.13;;
59038;SDS011;44824;43.376;19.630;2022-11-11T01:03:29;68.53;;;43.03;;
59038;SDS011;44824;43.376;19.630;2022-11-11T01:05:59;64.82;;;43.33;;
59038;SDS011;44824;43.376;19.630;2022-11-11T01:08:25;78.57;;;51.90;;
59038;SDS011;44824;43.376;19.630;2022-11-11T01:10:51;87.07;;;56.55;;
59038;SDS011;44824;43.376;19.630;2022-11-11T01:13:18;85.97;;;55.53;;
59038;SDS011;44824;43.376;19.630;2022-11-11T01:15:46;82.38;;;55.33;;
59038;SDS011;44824;43.376;19.630;2022-11-11T01:18:13;77.28;;;51.85;;
59038;SDS011;44824;43.376;19.630;2022-11-11T01:20:39;77.85;;;49.70;;
59038;SDS011;44824;43.376;19.630;2022-11-11T01:23:06;73.93;;;48.70;;
59038;SDS011;44824;43.376;19.630;2022-11-11T01:25:36;87.63;;;49.83;;
59038;SDS011;44824;43.376;19.630;2022-11-11T01:28:02;74.38;;;49.72;;
59038;SDS011;44824;43.376;19.630;2022-11-11T01:30:30;75.10;;;50.40;;
59038;SDS011;44824;43.376;19.630;2022-11-11T01:33:15;84.50;;;51.25;;
59038;SDS011;44824;43.376;19.630;2022-11-11T01:35:41;71.03;;;48.83;;
59038;SDS011;44824;43.376;19.630;2022-11-11T01:38:07;75.95;;;48.63;;
59038;SDS011;44824;43.376;19.630;2022-11-11T01:40:43;76.82;;;50.38;;
59038;SDS011;44824;43.376;19.630;2022-11-11T01:48:20;74.20;;;49.15;;
59038;SDS011;44824;43.376;19.630;2022-11-11T01:51:09;70.65;;;49.35;;
59038;SDS011;44824;43.376;19.630;2022-11-11T01:53:37;74.32;;;48.78;;
59038;SDS011;44824;43.376;19.630;2022-11-11T01:56:03;75.43;;;49.15;;
59038;SDS011;44824;43.376;19.630;2022-11-11T01:58:29;78.88;;;48.17;;
59038;SDS011;44824;43.376;19.630;2022-11-11T02:00:56;79.63;;;48.45;;
59038;SDS011;44824;43.376;19.630;2022-11-11T02:05:49;73.10;;;46.50;;
59038;SDS011;44824;43.376;19.630;2022-11-11T02:08:26;77.45;;;46.78;;
59038;SDS011;44824;43.376;19.630;2022-11-11T02:11:09;73.97;;;49.00;;
59038;SDS011;44824;43.376;19.630;2022-11-11T02:13:37;65.10;;;44.33;;
59038;SDS011;44824;43.376;19.630;2022-11-11T02:16:22;73.63;;;45.22;;
59038;SDS011;44824;43.376;19.630;2022-11-11T02:19:01;70.38;;;45.45;;
59038;SDS011;44824;43.376;19.630;2022-11-11T02:21:29;69.90;;;42.75;;
59038;SDS011;44824;43.376;19.630;2022-11-11T02:24:00;69.03;;;44.40;;
59038;SDS011;44824;43.376;19.630;2022-11-11T02:26:27;63.80;;;43.50;;
59038;SDS011;44824;43.376;19.630;2022-11-11T02:28:55;63.30;;;43.22;;
59038;SDS011;44824;43.376;19.630;2022-11-11T02:31:25;69.47;;;43.95;;
59038;SDS011;44824;43.376;19.630;2022-11-11T02:33:58;66.55;;;43.35;;
59038;SDS011;44824;43.376;19.630;2022-11-11T02:36:24;67.60;;;43.85;;
59038;SDS011;44824;43.376;19.630;2022-11-11T02:38:50;64.63;;;43.35;;
59038;SDS011;44824;43.376;19.630;2022-11-11T02:41:16;64.63;;;42.63;;
59038;SDS011;44824;43.376;19.630;2022-11-11T02:44:01;60.90;;;41.63;;
59038;SDS011;44824;43.376;19.630;2022-11-11T02:46:27;69.85;;;42.45;;
59038;SDS011;44824;43.376;19.630;2022-11-11T02:49:03;66.32;;;43.50;;
59038;SDS011;44824;43.376;19.630;2022-11-11T02:51:29;56.67;;;39.90;;
59038;SDS011;44824;43.376;19.630;2022-11-11T02:53:55;65.82;;;40.45;;
59038;SDS011;44824;43.376;19.630;2022-11-11T02:56:25;56.90;;;38.78;;
59038;SDS011;44824;43.376;19.630;2022-11-11T02:59:10;52.95;;;38.00;;
59038;SDS011;44824;43.376;19.630;2022-11-11T03:01:36;55.25;;;38.05;;
59038;SDS011;44824;43.376;19.630;2022-11-11T03:04:02;58.58;;;39.53;;
59038;SDS011;44824;43.376;19.630;2022-11-11T03:06:28;59.20;;;39.40;;
59038;SDS011;44824;43.376;19.630;2022-11-11T03:08:54;59.83;;;40.47;;
59038;SDS011;44824;43.376;19.630;2022-11-11T03:11:20;59.03;;;40.08;;
59038;SDS011;44824;43.376;19.630;2022-11-11T03:13:53;59.70;;;41.08;;
59038;SDS011;44824;43.376;19.630;2022-11-11T03:16:19;65.85;;;41.08;;
59038;SDS011;44824;43.376;19.630;2022-11-11T03:19:03;65.60;;;43.17;;
59038;SDS011;44824;43.376;19.630;2022-11-11T03:21:29;70.07;;;42.53;;
59038;SDS011;44824;43.376;19.630;2022-11-11T03:23:56;69.13;;;44.90;;
59038;SDS011;44824;43.376;19.630;2022-11-11T03:26:22;72.47;;;49.50;;
59038;SDS011;44824;43.376;19.630;2022-11-11T03:28:48;76.90;;;49.90;;
59038;SDS011;44824;43.376;19.630;2022-11-11T03:31:14;81.00;;;52.42;;
59038;SDS011;44824;43.376;19.630;2022-11-11T03:33:41;85.03;;;54.67;;
59038;SDS011;44824;43.376;19.630;2022-11-11T03:36:07;83.13;;;53.87;;
59038;SDS011;44824;43.376;19.630;2022-11-11T03:38:33;75.72;;;50.70;;
59038;SDS011;44824;43.376;19.630;2022-11-11T03:40:59;78.20;;;51.78;;
59038;SDS011;44824;43.376;19.630;2022-11-11T03:43:26;79.70;;;54.05;;
59038;SDS011;44824;43.376;19.630;2022-11-11T03:45:53;85.47;;;55.15;;
59038;SDS011;44824;43.376;19.630;2022-11-11T03:50:46;82.68;;;52.15;;
59038;SDS011;44824;43.376;19.630;2022-11-11T03:53:13;85.47;;;54.22;;
59038;SDS011;44824;43.376;19.630;2022-11-11T03:55:39;81.00;;;51.20;;
59038;SDS011;44824;43.376;19.630;2022-11-11T03:58:05;81.72;;;52.45;;
59038;SDS011;44824;43.376;19.630;2022-11-11T04:00:32;76.70;;;52.30;;
59038;SDS011;44824;43.376;19.630;2022-11-11T04:05:46;74.35;;;52.10;;
59038;SDS011;44824;43.376;19.630;2022-11-11T04:08:30;73.47;;;51.13;;
59038;SDS011;44824;43.376;19.630;2022-11-11T04:11:21;71.20;;;49.70;;
59038;SDS011;44824;43.376;19.630;2022-11-11T04:13:48;71.40;;;48.65;;
59038;SDS011;44824;43.376;19.630;2022-11-11T04:16:33;68.10;;;47.65;;
59038;SDS011;44824;43.376;19.630;2022-11-11T04:18:59;67.22;;;46.63;;
59038;SDS011;44824;43.376;19.630;2022-11-11T04:21:44;75.82;;;53.60;;
59038;SDS011;44824;43.376;19.630;2022-11-11T04:26:58;61.67;;;41.30;;
59038;SDS011;44824;43.376;19.630;2022-11-11T04:31:55;64.68;;;40.95;;
59038;SDS011;44824;43.376;19.630;2022-11-11T04:34:40;61.22;;;39.67;;
59038;SDS011;44824;43.376;19.630;2022-11-11T04:37:06;56.72;;;39.85;;
59038;SDS011;44824;43.376;19.630;2022-11-11T04:39:32;59.20;;;38.65;;
59038;SDS011;44824;43.376;19.630;2022-11-11T04:42:17;56.80;;;38.00;;
59038;SDS011;44824;43.376;19.630;2022-11-11T04:44:43;56.03;;;38.03;;
59038;SDS011;44824;43.376;19.630;2022-11-11T04:47:28;54.63;;;38.30;;
59038;SDS011;44824;43.376;19.630;2022-11-11T04:49:54;55.97;;;36.40;;
59038;SDS011;44824;43.376;19.630;2022-11-11T04:52:20;52.88;;;37.00;;
59038;SDS011;44824;43.376;19.630;2022-11-11T04:54:53;51.22;;;36.58;;
59038;SDS011;44824;43.376;19.630;2022-11-11T04:57:38;54.47;;;37.60;;
59038;SDS011;44824;43.376;19.630;2022-11-11T05:00:05;56.95;;;38.55;;
59038;SDS011;44824;43.376;19.630;2022-11-11T05:02:31;64.23;;;41.37;;
59038;SDS011;44824;43.376;19.630;2022-11-11T05:05:16;55.95;;;39.40;;
59038;SDS011;44824;43.376;19.630;2022-11-11T05:07:42;60.22;;;41.33;;
59038;SDS011;44824;43.376;19.630;2022-11-11T05:10:27;61.13;;;42.17;;
59038;SDS011;44824;43.376;19.630;2022-11-11T05:12:53;64.75;;;40.80;;
59038;SDS011;44824;43.376;19.630;2022-11-11T05:15:41;60.15;;;39.95;;
59038;SDS011;44824;43.376;19.630;2022-11-11T05:18:25;61.72;;;39.92;;
59038;SDS011;44824;43.376;19.630;2022-11-11T05:21:21;52.88;;;35.70;;
59038;SDS011;44824;43.376;19.630;2022-11-11T05:23:48;56.15;;;36.08;;
59038;SDS011;44824;43.376;19.630;2022-11-11T05:26:33;52.45;;;36.53;;
59038;SDS011;44824;43.376;19.630;2022-11-11T05:28:59;58.08;;;37.15;;
59038;SDS011;44824;43.376;19.630;2022-11-11T05:31:26;60.10;;;39.92;;
59038;SDS011;44824;43.376;19.630;2022-11-11T05:33:52;62.08;;;41.05;;
59038;SDS011;44824;43.376;19.630;2022-11-11T05:36:18;63.95;;;42.40;;
59038;SDS011;44824;43.376;19.630;2022-11-11T05:38:44;51.53;;;36.67;;
59038;SDS011;44824;43.376;19.630;2022-11-11T05:41:10;55.58;;;35.72;;
59038;SDS011;44824;43.376;19.630;2022-11-11T05:43:36;45.38;;;33.97;;
59038;SDS011;44824;43.376;19.630;2022-11-11T05:46:02;46.47;;;34.10;;
59038;SDS011;44824;43.376;19.630;2022-11-11T05:48:29;45.28;;;32.92;;
59038;SDS011;44824;43.376;19.630;2022-11-11T05:50:58;53.35;;;33.97;;
59038;SDS011;44824;43.376;19.630;2022-11-11T05:53:24;47.58;;;32.65;;
59038;SDS011;44824;43.376;19.630;2022-11-11T05:55:50;50.60;;;34.80;;
59038;SDS011;44824;43.376;19.630;2022-11-11T05:58:17;49.38;;;34.33;;
59038;SDS011;44824;43.376;19.630;2022-11-11T06:00:43;50.20;;;35.72;;
59038;SDS011;44824;43.376;19.630;2022-11-11T06:03:09;55.90;;;36.67;;
59038;SDS011;44824;43.376;19.630;2022-11-11T06:05:35;54.35;;;37.35;;
59038;SDS011;44824;43.376;19.630;2022-11-11T06:08:02;54.87;;;37.93;;
59038;SDS011;44824;43.376;19.630;2022-11-11T06:10:28;54.60;;;38.08;;
59038;SDS011;44824;43.376;19.630;2022-11-11T06:12:54;56.22;;;37.80;;
59038;SDS011;44824;43.376;19.630;2022-11-11T06:15:28;60.17;;;38.05;;
59038;SDS011;44824;43.376;19.630;2022-11-11T06:17:55;52.97;;;37.42;;
59038;SDS011;44824;43.376;19.630;2022-11-11T06:20:21;53.65;;;36.42;;
59038;SDS011;44824;43.376;19.630;2022-11-11T06:22:47;58.70;;;36.03;;
59038;SDS011;44824;43.376;19.630;2022-11-11T06:25:25;55.17;;;37.30;;
59038;SDS011;44824;43.376;19.630;2022-11-11T06:28:10;52.63;;;36.75;;
59038;SDS011;44824;43.376;19.630;2022-11-11T06:30:36;56.72;;;39.72;;
59038;SDS011;44824;43.376;19.630;2022-11-11T06:33:03;57.22;;;39.15;;
59038;SDS011;44824;43.376;19.630;2022-11-11T06:35:43;57.33;;;38.88;;
59038;SDS011;44824;43.376;19.630;2022-11-11T06:38:09;51.50;;;37.78;;
59038;SDS011;44824;43.376;19.630;2022-11-11T06:40:36;55.50;;;37.15;;
59038;SDS011;44824;43.376;19.630;2022-11-11T06:43:02;56.13;;;37.35;;
59038;SDS011;44824;43.376;19.630;2022-11-11T06:45:29;56.70;;;36.88;;
59038;SDS011;44824;43.376;19.630;2022-11-11T06:50:21;49.88;;;35.15;;
59038;SDS011;44824;43.376;19.630;2022-11-11T06:52:47;50.58;;;36.03;;
59038;SDS011;44824;43.376;19.630;2022-11-11T06:55:13;52.47;;;35.47;;
59038;SDS011;44824;43.376;19.630;2022-11-11T06:57:39;48.22;;;32.67;;
59038;SDS011;44824;43.376;19.630;2022-11-11T07:00:06;41.58;;;30.98;;
59038;SDS011;44824;43.376;19.630;2022-11-11T07:02:32;45.65;;;32.03;;
59038;SDS011;44824;43.376;19.630;2022-11-11T07:04:58;48.78;;;34.03;;
59038;SDS011;44824;43.376;19.630;2022-11-11T07:07:24;49.00;;;34.47;;
59038;SDS011;44824;43.376;19.630;2022-11-11T07:09:51;48.20;;;33.93;;
59038;SDS011;44824;43.376;19.630;2022-11-11T07:12:17;49.78;;;36.33;;
59038;SDS011;44824;43.376;19.630;2022-11-11T07:14:43;45.47;;;33.70;;
59038;SDS011;44824;43.376;19.630;2022-11-11T07:17:09;45.42;;;32.05;;
59038;SDS011;44824;43.376;19.630;2022-11-11T07:19:35;42.15;;;28.63;;
59038;SDS011;44824;43.376;19.630;2022-11-11T07:22:01;42.90;;;25.25;;
59038;SDS011;44824;43.376;19.630;2022-11-11T07:24:27;41.53;;;26.35;;
59038;SDS011;44824;43.376;19.630;2022-11-11T07:26:53;44.05;;;27.40;;
59038;SDS011;44824;43.376;19.630;2022-11-11T07:29:19;38.03;;;23.98;;
59038;SDS011;44824;43.376;19.630;2022-11-11T07:31:46;35.83;;;26.17;;
59038;SDS011;44824;43.376;19.630;2022-11-11T07:34:12;47.10;;;30.40;;
59038;SDS011;44824;43.376;19.630;2022-11-11T07:36:38;37.72;;;26.15;;
59038;SDS011;44824;43.376;19.630;2022-11-11T07:39:04;33.35;;;25.05;;
59038;SDS011;44824;43.376;19.630;2022-11-11T07:41:30;32.33;;;22.67;;
59038;SDS011;44824;43.376;19.630;2022-11-11T07:43:56;35.13;;;25.65;;
59038;SDS011;44824;43.376;19.630;2022-11-11T07:46:22;45.42;;;31.08;;
59038;SDS011;44824;43.376;19.630;2022-11-11T07:48:48;32.28;;;23.20;;
59038;SDS011;44824;43.376;19.630;2022-11-11T07:51:14;28.23;;;20.73;;
59038;SDS011;44824;43.376;19.630;2022-11-11T07:53:41;26.30;;;19.33;;
59038;SDS011;44824;43.376;19.630;2022-11-11T07:56:07;26.25;;;19.52;;
59038;SDS011;44824;43.376;19.630;2022-11-11T07:58:33;30.50;;;20.33;;
59038;SDS011;44824;43.376;19.630;2022-11-11T08:00:59;36.67;;;26.95;;
59038;SDS011;44824;43.376;19.630;2022-11-11T08:03:25;29.23;;;21.27;;
59038;SDS011;44824;43.376;19.630;2022-11-11T08:05:51;26.88;;;20.38;;
59038;SDS011;44824;43.376;19.630;2022-11-11T08:08:17;31.15;;;19.85;;
59038;SDS011;44824;43.376;19.630;2022-11-11T08:10:49;28.60;;;20.58;;
59038;SDS011;44824;43.376;19.630;2022-11-11T08:13:15;31.98;;;22.48;;
59038;SDS011;44824;43.376;19.630;2022-11-11T08:15:59;64.95;;;21.27;;
59038;SDS011;44824;43.376;19.630;2022-11-11T08:20:52;30.45;;;21.73;;
59038;SDS011;44824;43.376;19.630;2022-11-11T08:23:18;31.58;;;22.48;;
59038;SDS011;44824;43.376;19.630;2022-11-11T08:25:56;39.17;;;28.27;;
59038;SDS011;44824;43.376;19.630;2022-11-11T08:28:24;34.55;;;25.65;;
59038;SDS011;44824;43.376;19.630;2022-11-11T08:33:26;35.75;;;27.10;;
59038;SDS011;44824;43.376;19.630;2022-11-11T08:35:53;38.47;;;27.70;;
59038;SDS011;44824;43.376;19.630;2022-11-11T08:38:20;37.10;;;24.88;;
59038;SDS011;44824;43.376;19.630;2022-11-11T08:40:47;32.45;;;23.75;;
59038;SDS011;44824;43.376;19.630;2022-11-11T08:43:14;31.25;;;21.60;;
59038;SDS011;44824;43.376;19.630;2022-11-11T08:45:40;24.00;;;18.42;;
59038;SDS011;44824;43.376;19.630;2022-11-11T08:48:06;26.38;;;18.35;;
59038;SDS011;44824;43.376;19.630;2022-11-11T08:50:36;26.08;;;17.95;;
59038;SDS011;44824;43.376;19.630;2022-11-11T08:53:02;28.38;;;18.50;;
59038;SDS011;44824;43.376;19.630;2022-11-11T08:55:29;24.95;;;17.90;;
59038;SDS011;44824;43.376;19.630;2022-11-11T08:57:58;27.15;;;18.17;;
59038;SDS011;44824;43.376;19.630;2022-11-11T09:00:25;25.90;;;19.10;;
59038;SDS011;44824;43.376;19.630;2022-11-11T09:02:51;27.50;;;19.55;;
59038;SDS011;44824;43.376;19.630;2022-11-11T09:05:17;25.75;;;19.45;;
59038;SDS011;44824;43.376;19.630;2022-11-11T09:10:15;30.42;;;21.92;;
59038;SDS011;44824;43.376;19.630;2022-11-11T09:12:41;36.00;;;24.88;;
59038;SDS011;44824;43.376;19.630;2022-11-11T09:15:07;34.45;;;22.65;;
59038;SDS011;44824;43.376;19.630;2022-11-11T09:17:36;31.87;;;19.60;;
59038;SDS011;44824;43.376;19.630;2022-11-11T09:20:03;18.70;;;12.43;;
59038;SDS011;44824;43.376;19.630;2022-11-11T09:22:29;13.38;;;8.60;;
59038;SDS011;44824;43.376;19.630;2022-11-11T09:24:55;11.50;;;7.63;;
59038;SDS011;44824;43.376;19.630;2022-11-11T09:27:21;10.02;;;6.82;;
59038;SDS011;44824;43.376;19.630;2022-11-11T09:29:47;11.40;;;7.20;;
59038;SDS011;44824;43.376;19.630;2022-11-11T09:32:14;9.10;;;5.93;;
59038;SDS011;44824;43.376;19.630;2022-11-11T09:34:40;10.15;;;6.97;;
59038;SDS011;44824;43.376;19.630;2022-11-11T09:37:11;13.02;;;7.28;;
59038;SDS011;44824;43.376;19.630;2022-11-11T09:39:37;11.85;;;8.57;;
59038;SDS011;44824;43.376;19.630;2022-11-11T09:44:34;9.97;;;6.57;;
59038;SDS011;44824;43.376;19.630;2022-11-11T09:47:09;12.45;;;8.38;;
59038;SDS011;44824;43.376;19.630;2022-11-11T09:59:55;7.80;;;4.70;;
59038;SDS011;44824;43.376;19.630;2022-11-11T10:02:29;7.63;;;4.25;;
59038;SDS011;44824;43.376;19.630;2022-11-11T10:07:44;6.90;;;4.20;;
59038;SDS011;44824;43.376;19.630;2022-11-11T10:12:41;8.30;;;5.68;;
59038;SDS011;44824;43.376;19.630;2022-11-11T10:15:11;10.43;;;3.90;;
59038;SDS011;44824;43.376;19.630;2022-11-11T10:20:51;6.70;;;3.80;;
59038;SDS011;44824;43.376;19.630;2022-11-11T10:25:42;7.20;;;3.83;;
59038;SDS011;44824;43.376;19.630;2022-11-11T10:28:18;8.43;;;5.00;;
59038;SDS011;44824;43.376;19.630;2022-11-11T10:30:45;6.82;;;3.53;;
59038;SDS011;44824;43.376;19.630;2022-11-11T10:35:37;6.38;;;3.25;;
59038;SDS011;44824;43.376;19.630;2022-11-11T10:40:52;7.63;;;4.07;;
59038;SDS011;44824;43.376;19.630;2022-11-11T10:43:22;7.85;;;4.18;;
59038;SDS011;44824;43.376;19.630;2022-11-11T10:46:35;7.72;;;4.32;;
59038;SDS011;44824;43.376;19.630;2022-11-11T10:51:03;7.80;;;3.90;;
59038;SDS011;44824;43.376;19.630;2022-11-11T10:58:41;8.18;;;4.55;;
59038;SDS011;44824;43.376;19.630;2022-11-11T11:01:09;6.87;;;3.37;;
59038;SDS011;44824;43.376;19.630;2022-11-11T11:03:39;7.22;;;3.90;;
59038;SDS011;44824;43.376;19.630;2022-11-11T11:06:12;6.32;;;3.15;;
59038;SDS011;44824;43.376;19.630;2022-11-11T11:08:50;8.27;;;3.55;;
59038;SDS011;44824;43.376;19.630;2022-11-11T11:11:20;8.57;;;3.20;;
59038;SDS011;44824;43.376;19.630;2022-11-11T11:13:49;7.72;;;3.50;;
59038;SDS011;44824;43.376;19.630;2022-11-11T11:38:19;8.27;;;4.18;;
59038;SDS011;44824;43.376;19.630;2022-11-11T12:50:23;10.07;;;4.35;;
59038;SDS011;44824;43.376;19.630;2022-11-11T12:52:57;9.35;;;5.00;;
59038;SDS011;44824;43.376;19.630;2022-11-11T12:55:32;8.60;;;3.92;;
59038;SDS011;44824;43.376;19.630;2022-11-11T13:03:40;7.57;;;2.80;;
59038;SDS011;44824;43.376;19.630;2022-11-11T13:06:15;6.10;;;2.05;;
59038;SDS011;44824;43.376;19.630;2022-11-11T13:08:58;6.05;;;1.90;;
59038;SDS011;44824;43.376;19.630;2022-11-11T13:16:35;11.38;;;6.20;;
59038;SDS011;44824;43.376;19.630;2022-11-11T13:19:12;6.05;;;2.30;;
59038;SDS011;44824;43.376;19.630;2022-11-11T13:24:15;7.22;;;3.30;;
59038;SDS011;44824;43.376;19.630;2022-11-11T13:26:43;7.05;;;3.22;;
59038;SDS011;44824;43.376;19.630;2022-11-11T13:31:42;6.68;;;2.63;;
59038;SDS011;44824;43.376;19.630;2022-11-11T13:34:10;10.23;;;3.28;;
59038;SDS011;44824;43.376;19.630;2022-11-11T13:36:41;7.85;;;2.90;;
59038;SDS011;44824;43.376;19.630;2022-11-11T13:39:17;13.93;;;5.25;;
59038;SDS011;44824;43.376;19.630;2022-11-11T13:41:48;16.40;;;5.45;;
59038;SDS011;44824;43.376;19.630;2022-11-11T13:44:23;14.43;;;9.68;;
59038;SDS011;44824;43.376;19.630;2022-11-11T13:46:50;11.43;;;6.03;;
59038;SDS011;44824;43.376;19.630;2022-11-11T13:49:27;8.23;;;4.53;;
59038;SDS011;44824;43.376;19.630;2022-11-11T13:52:01;11.23;;;4.05;;
59038;SDS011;44824;43.376;19.630;2022-11-11T13:54:35;8.40;;;2.85;;
59038;SDS011;44824;43.376;19.630;2022-11-11T13:57:04;7.47;;;3.35;;
59038;SDS011;44824;43.376;19.630;2022-11-11T13:59:37;9.30;;;2.97;;
59038;SDS011;44824;43.376;19.630;2022-11-11T14:10:07;10.55;;;3.65;;
59038;SDS011;44824;43.376;19.630;2022-11-11T14:12:36;8.95;;;4.20;;
59038;SDS011;44824;43.376;19.630;2022-11-11T14:15:02;7.45;;;3.97;;
59038;SDS011;44824;43.376;19.630;2022-11-11T14:17:32;8.82;;;4.10;;
59038;SDS011;44824;43.376;19.630;2022-11-11T14:19:58;9.18;;;4.10;;
59038;SDS011;44824;43.376;19.630;2022-11-11T14:22:31;8.05;;;3.60;;
59038;SDS011;44824;43.376;19.630;2022-11-11T14:25:13;13.88;;;7.45;;
59038;SDS011;44824;43.376;19.630;2022-11-11T14:27:43;9.00;;;4.80;;
59038;SDS011;44824;43.376;19.630;2022-11-11T14:30:11;11.23;;;5.82;;
59038;SDS011;44824;43.376;19.630;2022-11-11T14:32:59;10.55;;;4.78;;
59038;SDS011;44824;43.376;19.630;2022-11-11T14:40:44;14.70;;;8.40;;
59038;SDS011;44824;43.376;19.630;2022-11-11T14:45:58;12.43;;;6.82;;
59038;SDS011;44824;43.376;19.630;2022-11-11T14:53:54;17.17;;;7.55;;
59038;SDS011;44824;43.376;19.630;2022-11-11T14:56:20;30.73;;;11.07;;
59038;SDS011;44824;43.376;19.630;2022-11-11T14:58:46;22.98;;;10.60;;
59038;SDS011;44824;43.376;19.630;2022-11-11T15:01:13;25.45;;;12.20;;
59038;SDS011;44824;43.376;19.630;2022-11-11T15:08:45;16.50;;;8.18;;
59038;SDS011;44824;43.376;19.630;2022-11-11T15:11:30;27.95;;;8.05;;
59038;SDS011;44824;43.376;19.630;2022-11-11T15:21:59;17.50;;;10.50;;
59038;SDS011;44824;43.376;19.630;2022-11-11T15:24:37;24.85;;;15.88;;
59038;SDS011;44824;43.376;19.630;2022-11-11T15:32:35;24.70;;;14.75;;
59038;SDS011;44824;43.376;19.630;2022-11-11T15:37:34;31.63;;;18.52;;
59038;SDS011;44824;43.376;19.630;2022-11-11T15:40:01;17.58;;;11.15;;
59038;SDS011;44824;43.376;19.630;2022-11-11T15:42:29;21.20;;;11.50;;
59038;SDS011;44824;43.376;19.630;2022-11-11T15:45:00;20.63;;;11.50;;
59038;SDS011;44824;43.376;19.630;2022-11-11T15:47:28;26.40;;;14.48;;
59038;SDS011;44824;43.376;19.630;2022-11-11T15:52:30;21.90;;;11.00;;
59038;SDS011;44824;43.376;19.630;2022-11-11T15:54:57;32.65;;;18.88;;
59038;SDS011;44824;43.376;19.630;2022-11-11T15:57:24;38.33;;;24.70;;
59038;SDS011;44824;43.376;19.630;2022-11-11T15:59:51;48.33;;;27.38;;
59038;SDS011;44824;43.376;19.630;2022-11-11T16:07:23;24.88;;;17.23;;
59038;SDS011;44824;43.376;19.630;2022-11-11T16:25:31;45.50;;;26.05;;
59038;SDS011;44824;43.376;19.630;2022-11-11T16:28:11;44.78;;;27.30;;
59038;SDS011;44824;43.376;19.630;2022-11-11T16:30:37;54.00;;;33.22;;
59038;SDS011;44824;43.376;19.630;2022-11-11T16:33:04;70.07;;;32.20;;
59038;SDS011;44824;43.376;19.630;2022-11-11T16:35:39;58.50;;;34.78;;
59038;SDS011;44824;43.376;19.630;2022-11-11T16:38:05;57.97;;;34.88;;
59038;SDS011;44824;43.376;19.630;2022-11-11T16:43:16;61.05;;;39.05;;
59038;SDS011;44824;43.376;19.630;2022-11-11T16:46:03;64.30;;;36.55;;
59038;SDS011;44824;43.376;19.630;2022-11-11T17:12:35;48.65;;;33.35;;
59038;SDS011;44824;43.376;19.630;2022-11-11T17:15:02;49.60;;;33.42;;
59038;SDS011;44824;43.376;19.630;2022-11-11T17:17:29;52.03;;;34.17;;
59038;SDS011;44824;43.376;19.630;2022-11-11T17:20:05;48.50;;;30.27;;
59038;SDS011;44824;43.376;19.630;2022-11-11T17:22:32;44.72;;;29.75;;
59038;SDS011;44824;43.376;19.630;2022-11-11T17:25:03;45.00;;;31.63;;
59038;SDS011;44824;43.376;19.630;2022-11-11T17:27:29;44.92;;;26.83;;
59038;SDS011;44824;43.376;19.630;2022-11-11T17:29:56;38.80;;;24.95;;
59038;SDS011;44824;43.376;19.630;2022-11-11T17:32:22;46.20;;;26.17;;
59038;SDS011;44824;43.376;19.630;2022-11-11T17:34:48;47.80;;;30.93;;
59038;SDS011;44824;43.376;19.630;2022-11-11T17:37:14;48.22;;;30.73;;
59038;SDS011;44824;43.376;19.630;2022-11-11T17:39:40;43.95;;;27.77;;
59038;SDS011;44824;43.376;19.630;2022-11-11T17:42:08;54.35;;;28.20;;
59038;SDS011;44824;43.376;19.630;2022-11-11T17:44:35;52.58;;;36.55;;
59038;SDS011;44824;43.376;19.630;2022-11-11T17:47:01;62.78;;;44.97;;
59038;SDS011;44824;43.376;19.630;2022-11-11T17:49:27;50.85;;;31.95;;
59038;SDS011;44824;43.376;19.630;2022-11-11T17:51:53;42.25;;;29.77;;
59038;SDS011;44824;43.376;19.630;2022-11-11T17:54:19;48.80;;;31.08;;
59038;SDS011;44824;43.376;19.630;2022-11-11T17:56:47;54.30;;;36.47;;
59038;SDS011;44824;43.376;19.630;2022-11-11T17:59:14;60.20;;;40.90;;
59038;SDS011;44824;43.376;19.630;2022-11-11T18:01:40;67.50;;;43.40;;
59038;SDS011;44824;43.376;19.630;2022-11-11T18:04:06;66.30;;;40.30;;
59038;SDS011;44824;43.376;19.630;2022-11-11T18:06:33;58.83;;;40.30;;
59038;SDS011;44824;43.376;19.630;2022-11-11T18:08:59;65.38;;;43.88;;
59038;SDS011;44824;43.376;19.630;2022-11-11T18:11:25;63.15;;;42.85;;
59038;SDS011;44824;43.376;19.630;2022-11-11T18:13:52;65.00;;;43.88;;
59038;SDS011;44824;43.376;19.630;2022-11-11T18:16:18;66.63;;;44.47;;
59038;SDS011;44824;43.376;19.630;2022-11-11T18:18:44;64.05;;;39.20;;
59038;SDS011;44824;43.376;19.630;2022-11-11T18:21:11;53.97;;;36.92;;
59038;SDS011;44824;43.376;19.630;2022-11-11T18:23:38;68.55;;;47.75;;
59038;SDS011;44824;43.376;19.630;2022-11-11T18:26:04;64.53;;;45.03;;
59038;SDS011;44824;43.376;19.630;2022-11-11T18:28:32;58.67;;;40.55;;
59038;SDS011;44824;43.376;19.630;2022-11-11T18:31:06;70.05;;;44.80;;
59038;SDS011;44824;43.376;19.630;2022-11-11T18:33:33;67.97;;;43.53;;
59038;SDS011;44824;43.376;19.630;2022-11-11T18:36:06;67.60;;;45.15;;
59038;SDS011;44824;43.376;19.630;2022-11-11T18:38:32;63.65;;;44.00;;
59038;SDS011;44824;43.376;19.630;2022-11-11T18:41:07;67.53;;;43.67;;
59038;SDS011;44824;43.376;19.630;2022-11-11T18:43:34;72.25;;;45.85;;
59038;SDS011;44824;43.376;19.630;2022-11-11T18:46:03;67.47;;;44.67;;
59038;SDS011;44824;43.376;19.630;2022-11-11T18:48:29;63.95;;;43.33;;
59038;SDS011;44824;43.376;19.630;2022-11-11T18:50:55;66.57;;;44.13;;
59038;SDS011;44824;43.376;19.630;2022-11-11T18:53:21;69.65;;;45.92;;
59038;SDS011;44824;43.376;19.630;2022-11-11T18:55:47;62.90;;;41.65;;
59038;SDS011;44824;43.376;19.630;2022-11-11T18:58:13;65.15;;;44.05;;
59038;SDS011;44824;43.376;19.630;2022-11-11T19:00:39;70.57;;;45.45;;
59038;SDS011;44824;43.376;19.630;2022-11-11T19:03:05;68.90;;;43.57;;
59038;SDS011;44824;43.376;19.630;2022-11-11T19:05:31;53.45;;;34.83;;
59038;SDS011;44824;43.376;19.630;2022-11-11T19:07:58;78.88;;;46.25;;
59038;SDS011;44824;43.376;19.630;2022-11-11T19:10:24;78.53;;;44.55;;
59038;SDS011;44824;43.376;19.630;2022-11-11T19:12:50;56.45;;;37.92;;
59038;SDS011;44824;43.376;19.630;2022-11-11T19:15:16;59.35;;;39.05;;